الصفحة الرئيسية
METAR-TAF:

METAR-TAF

مطار :

Andersen, غوام, الولايات المتحدة

دائرة عرض: 13-35N, خط طول: 144-56E, ارتفاع: 187 متر

مراقبة الطقس الحالي

تاريخ ووقت الإصدار 8 دقيقة قبل الساعة 08:56UTC
ريح 6 عقدة من الشرق/الجنوب الشرقي
درجة الحرارة 27°درجة مئوية
الرطوبة 79%
ضغط 1012 hPa
الرؤية: 16.1 كم
غيوم متفرقة على ارتفاع 5000 قدم

METAR: PGUA 170856Z 12006KT 10SM SCT050 27/23 A2987 RMK AO2A SLP105 T02660226 53007 $

زمن: 19:04 (09:04 UTC)

توقعات

تاريخ ووقت الإصدار 7ساعات و 4 دقيقة قبل الساعة 02:00UTC
التوقعات صالحة من17 الساعة 02 UTC إلى 18 الساعة 08 UTC
ريح 12 عقدة من الشرق
الرؤية 10 كم أو أكثر
غيوم متفرقة على ارتفاع 1500 قدم
غيوم متفرقة على ارتفاع 15000 قدم
مؤقت
من 17 الساعة 10 UTC إلى 17 الساعة 21 UTC
غيوم مفككة على ارتفاع 1500 قدم
زخات في الجوار

TAF: PGUA 170200Z 1702/1808 09012KT 9999 SCT015 SCT150 QNH2983INS TEMPO 1710/1721 VCSH BKN015 TX30/1703Z TN25/1718Z

أرصاد الطقس والتوقعات من أكثر من 4000 مطار (تقارير الطقس للمطار METAR والتنبؤ بالطقس بالمطارTAF).

المحطات المتاحة هي النقط الصفراء والحمراء على الخريطة.

حرك المؤشر فوق النقطة لمعرفة اسم المحطة.

ثم انقر لمعرفة أرصاد وتوقعات الطقس.

لتغيير الخارطة: اضغط على الأزرار الخضراء مع رمز الصليب الأسود للتكبير. على الزر الأخضر مع شرطة للتصغير، أو على الأسهم الخضراء للخرائط المجاورة.


METAR-TAF: